createdAt,value
2018-09-29T00:00:42.778Z,4.47
2018-09-29T00:03:11.291Z,5.20
2018-09-29T00:05:39.610Z,4.93
2018-09-29T00:08:07.736Z,4.80
2018-09-29T00:10:36.156Z,5.30
2018-09-29T00:13:04.527Z,4.67
2018-09-29T00:15:32.694Z,4.80
2018-09-29T00:18:01.074Z,4.63
2018-09-29T00:20:29.361Z,4.60
2018-09-29T00:22:57.467Z,4.47
2018-09-29T00:25:25.613Z,4.10
2018-09-29T00:27:53.786Z,4.83
2018-09-29T00:30:21.903Z,4.57
2018-09-29T00:32:50.019Z,4.20
2018-09-29T00:35:18.108Z,4.47
2018-09-29T00:37:46.203Z,4.47
2018-09-29T00:40:14.360Z,5.13
2018-09-29T00:42:42.560Z,4.97
2018-09-29T00:45:10.715Z,5.13
2018-09-29T00:47:38.855Z,4.07
2018-09-29T00:50:07.058Z,4.67
2018-09-29T00:52:35.151Z,4.40
2018-09-29T00:55:03.374Z,4.90
2018-09-29T00:57:31.458Z,5.43
2018-09-29T00:59:59.571Z,5.37
2018-09-29T01:02:27.674Z,5.23
2018-09-29T01:04:55.770Z,4.97
2018-09-29T01:07:23.974Z,5.20
2018-09-29T01:09:52.123Z,5.10
2018-09-29T01:12:20.298Z,4.70
2018-09-29T01:14:48.516Z,4.30
2018-09-29T01:17:16.662Z,4.73
2018-09-29T01:19:44.775Z,5.10
2018-09-29T01:22:12.879Z,4.63
2018-09-29T01:24:40.984Z,5.10
2018-09-29T01:27:09.077Z,5.13
2018-09-29T01:29:37.771Z,4.60
2018-09-29T01:32:05.915Z,4.83
2018-09-29T01:34:34.116Z,5.30
2018-09-29T01:37:02.254Z,4.80
2018-09-29T01:39:30.430Z,5.00
2018-09-29T01:41:58.611Z,5.27
2018-09-29T01:44:26.787Z,4.83
2018-09-29T01:46:54.914Z,5.27
2018-09-29T01:49:23.011Z,5.43
2018-09-29T01:51:51.122Z,5.60
2018-09-29T01:54:19.209Z,5.40
2018-09-29T01:56:47.350Z,5.50
2018-09-29T01:59:15.450Z,4.93
2018-09-29T02:01:43.582Z,4.40
2018-09-29T02:04:11.747Z,4.80
2018-09-29T02:06:39.863Z,4.90
2018-09-29T02:09:08.516Z,4.73
2018-09-29T02:11:36.727Z,4.40
2018-09-29T02:14:05.275Z,4.87
2018-09-29T02:16:33.655Z,4.37
2018-09-29T02:19:01.832Z,5.20
2018-09-29T02:21:29.923Z,4.47
2018-09-29T02:23:58.016Z,4.87
2018-09-29T02:26:26.134Z,4.73
2018-09-29T02:28:54.272Z,5.40
2018-09-29T02:31:22.499Z,4.73
2018-09-29T02:33:50.575Z,4.67
2018-09-29T02:36:18.718Z,4.50
2018-09-29T02:38:46.827Z,5.00
2018-09-29T02:41:14.919Z,4.80
2018-09-29T02:43:43.011Z,5.20
2018-09-29T02:46:11.137Z,5.20
2018-09-29T02:48:39.223Z,5.33
2018-09-29T02:51:07.307Z,4.63
2018-09-29T02:53:35.410Z,5.27
2018-09-29T02:56:03.502Z,5.37
2018-09-29T02:58:31.636Z,5.10
2018-09-29T03:00:59.786Z,4.63
2018-09-29T03:03:27.870Z,5.97
2018-09-29T03:05:56.004Z,5.17
2018-09-29T03:08:24.096Z,4.60
2018-09-29T03:10:52.259Z,5.03
2018-09-29T03:13:20.419Z,4.80
2018-09-29T03:15:48.797Z,4.50
2018-09-29T03:18:16.913Z,5.27
2018-09-29T03:20:45.041Z,4.47
2018-09-29T03:23:13.161Z,5.00
2018-09-29T03:25:41.295Z,4.90
2018-09-29T03:28:09.495Z,4.67
2018-09-29T03:30:37.636Z,4.80
2018-09-29T03:33:05.732Z,4.30
2018-09-29T03:35:33.917Z,4.67
2018-09-29T03:38:02.060Z,4.83
2018-09-29T03:40:30.271Z,5.70
2018-09-29T03:42:58.399Z,4.87
2018-09-29T03:45:26.729Z,4.60
2018-09-29T03:47:54.850Z,5.17
2018-09-29T03:50:22.955Z,5.07
2018-09-29T03:52:51.079Z,5.57
2018-09-29T03:55:19.191Z,5.20
2018-09-29T03:57:47.284Z,4.57
2018-09-29T04:00:15.443Z,5.43
2018-09-29T04:02:43.529Z,5.37
2018-09-29T04:05:11.772Z,5.57
2018-09-29T04:07:39.911Z,5.53
2018-09-29T04:10:08.053Z,6.10
2018-09-29T04:12:36.210Z,5.63
2018-09-29T04:15:04.398Z,5.67
2018-09-29T04:17:32.536Z,5.37
2018-09-29T04:20:00.663Z,5.90
2018-09-29T04:22:28.843Z,5.53
2018-09-29T04:24:56.952Z,4.97
2018-09-29T04:27:25.037Z,4.63
2018-09-29T04:29:53.139Z,4.53
2018-09-29T04:32:21.244Z,5.10
2018-09-29T04:34:49.351Z,4.87
2018-09-29T04:37:17.523Z,5.07
2018-09-29T04:39:45.619Z,5.27
2018-09-29T04:42:13.773Z,5.33
2018-09-29T04:44:41.953Z,5.67
2018-09-29T04:47:10.091Z,5.23
2018-09-29T04:49:38.248Z,4.70
2018-09-29T04:52:06.359Z,4.80
2018-09-29T04:54:34.456Z,4.90
2018-09-29T04:57:02.615Z,4.63
2018-09-29T04:59:30.706Z,5.13
2018-09-29T05:01:58.815Z,5.27
2018-09-29T05:04:26.932Z,5.37
2018-09-29T05:06:55.111Z,5.97
2018-09-29T05:09:23.283Z,5.00
2018-09-29T05:11:51.427Z,5.17
2018-09-29T05:14:19.527Z,5.17
2018-09-29T05:16:47.707Z,5.23
2018-09-29T05:19:15.891Z,5.57
2018-09-29T05:21:44.055Z,5.80
2018-09-29T05:24:12.143Z,5.63
2018-09-29T05:26:40.240Z,5.20
2018-09-29T05:29:08.390Z,6.43
2018-09-29T05:31:36.519Z,5.40
2018-09-29T05:34:04.640Z,5.20
2018-09-29T05:36:32.738Z,5.43
2018-09-29T05:39:00.884Z,5.20
2018-09-29T05:41:29.078Z,5.37
2018-09-29T05:43:57.303Z,6.17
2018-09-29T05:46:25.454Z,5.90
2018-09-29T05:48:53.571Z,6.53
2018-09-29T05:51:21.694Z,6.63
2018-09-29T05:53:49.818Z,7.47
2018-09-29T05:56:18.232Z,6.97
2018-09-29T05:58:46.338Z,7.20
2018-09-29T06:01:14.490Z,6.40
2018-09-29T06:03:42.695Z,5.60
2018-09-29T06:06:10.841Z,5.67
2018-09-29T06:08:38.951Z,5.63
2018-09-29T06:11:07.075Z,5.77
2018-09-29T06:13:35.314Z,5.67
2018-09-29T06:16:03.429Z,5.37
2018-09-29T06:18:31.607Z,6.40
2018-09-29T06:20:59.872Z,6.07
2018-09-29T06:23:28.051Z,4.70
2018-09-29T06:25:56.139Z,5.13
2018-09-29T06:28:24.246Z,4.27
2018-09-29T06:30:52.393Z,4.73
2018-09-29T06:33:20.538Z,4.60
2018-09-29T06:35:48.632Z,4.60
2018-09-29T06:38:16.797Z,4.40
2018-09-29T06:40:44.968Z,4.47
2018-09-29T06:43:13.056Z,4.40
2018-09-29T06:45:41.155Z,4.93
2018-09-29T06:48:09.277Z,5.10
2018-09-29T06:50:37.400Z,4.93
2018-09-29T06:53:05.525Z,4.73
2018-09-29T06:55:33.722Z,5.47
2018-09-29T06:58:01.899Z,5.27
2018-09-29T07:00:33.080Z,4.97
2018-09-29T07:03:01.403Z,5.60
2018-09-29T07:05:29.477Z,4.97
2018-09-29T07:07:57.648Z,4.80
2018-09-29T07:10:25.785Z,6.60
2018-09-29T07:12:54.064Z,5.63
2018-09-29T07:15:22.108Z,4.27
2018-09-29T07:17:50.245Z,4.10
2018-09-29T07:20:18.439Z,4.00
2018-09-29T07:22:46.580Z,4.47
2018-09-29T07:25:14.865Z,4.40
2018-09-29T07:27:42.942Z,4.90
2018-09-29T07:30:11.043Z,4.97
2018-09-29T07:32:39.215Z,4.60
2018-09-29T07:35:07.380Z,4.27
2018-09-29T07:37:35.551Z,4.17
2018-09-29T07:40:03.719Z,3.40
2018-09-29T07:42:31.922Z,3.30
2018-09-29T07:45:00.172Z,3.03
2018-09-29T07:47:28.459Z,3.57
2018-09-29T07:49:56.734Z,3.47
2018-09-29T07:52:24.922Z,3.37
2018-09-29T07:54:53.372Z,3.20
2018-09-29T07:57:21.470Z,3.07
2018-09-29T07:59:49.591Z,2.97
2018-09-29T08:02:17.695Z,2.63
2018-09-29T08:04:45.788Z,3.30
2018-09-29T08:07:15.004Z,2.70
2018-09-29T08:09:43.254Z,3.30
2018-09-29T08:12:11.432Z,2.93
2018-09-29T08:14:39.514Z,2.80
2018-09-29T08:17:07.654Z,3.30
2018-09-29T08:19:35.736Z,2.87
2018-09-29T08:22:03.893Z,3.60
2018-09-29T08:24:33.072Z,3.07
2018-09-29T08:27:01.170Z,3.00
2018-09-29T08:29:29.563Z,3.07
2018-09-29T08:31:57.719Z,2.77
2018-09-29T08:34:25.893Z,3.53
2018-09-29T08:36:54.070Z,3.07
2018-09-29T08:39:22.239Z,3.10
2018-09-29T08:41:50.350Z,3.00
2018-09-29T08:44:18.619Z,2.93
2018-09-29T08:46:46.816Z,3.13
2018-09-29T08:49:14.975Z,2.93
2018-09-29T08:51:43.133Z,3.37
2018-09-29T08:54:11.292Z,3.60
2018-09-29T08:56:39.387Z,3.20
2018-09-29T08:59:07.542Z,2.87
2018-09-29T09:01:35.713Z,3.47
2018-09-29T09:04:03.902Z,3.03
2018-09-29T09:06:32.125Z,4.00
2018-09-29T09:09:00.250Z,3.80
2018-09-29T09:11:28.404Z,2.87
2018-09-29T09:13:56.519Z,2.97
2018-09-29T09:16:24.716Z,2.77
2018-09-29T09:18:52.856Z,2.57
2018-09-29T09:21:22.231Z,3.00
2018-09-29T09:23:50.423Z,2.70
2018-09-29T09:26:18.566Z,2.63
2018-09-29T09:28:46.674Z,3.00
2018-09-29T09:31:14.919Z,2.70
2018-09-29T09:33:43.038Z,3.30
2018-09-29T09:36:11.206Z,3.70
2018-09-29T09:38:39.326Z,3.07
2018-09-29T09:41:07.486Z,2.90
2018-09-29T09:43:35.672Z,2.70
2018-09-29T09:46:03.966Z,3.13
2018-09-29T09:48:32.091Z,3.27
2018-09-29T09:51:00.183Z,2.83
2018-09-29T09:53:28.267Z,3.10
2018-09-29T09:55:56.410Z,2.70
2018-09-29T09:58:24.654Z,2.70
2018-09-29T10:00:58.159Z,2.13
2018-09-29T10:03:26.511Z,1.87
2018-09-29T10:05:54.828Z,2.40
2018-09-29T10:08:22.956Z,2.10
2018-09-29T10:10:51.207Z,2.40
2018-09-29T10:13:19.672Z,2.20
2018-09-29T10:15:47.802Z,2.27
2018-09-29T10:18:15.935Z,1.80
2018-09-29T10:20:44.076Z,2.00
2018-09-29T10:23:12.207Z,1.80
2018-09-29T10:25:40.399Z,2.03
2018-09-29T10:28:08.623Z,2.47
2018-09-29T10:30:36.725Z,2.07
2018-09-29T10:33:05.080Z,1.97
2018-09-29T10:35:33.197Z,2.00
2018-09-29T10:38:01.350Z,2.33
2018-09-29T10:40:29.524Z,2.00
2018-09-29T10:42:57.663Z,2.30
2018-09-29T10:45:26.051Z,2.10
2018-09-29T10:47:54.162Z,2.20
2018-09-29T10:50:22.340Z,1.97
2018-09-29T10:52:50.588Z,1.90
2018-09-29T10:55:18.843Z,2.20
2018-09-29T10:57:46.930Z,2.15
2018-09-29T11:00:15.109Z,2.00
2018-09-29T11:02:43.266Z,1.80
2018-09-29T11:05:11.335Z,1.67
2018-09-29T11:07:39.434Z,1.80
2018-09-29T11:10:07.582Z,2.17
2018-09-29T11:12:35.761Z,2.07
2018-09-29T11:15:03.870Z,3.10
2018-09-29T11:17:31.951Z,2.30
2018-09-29T11:20:00.066Z,2.27
2018-09-29T11:22:28.207Z,1.60
2018-09-29T11:24:56.350Z,1.80
2018-09-29T11:27:24.542Z,1.87
2018-09-29T11:29:52.688Z,1.60
2018-09-29T11:32:20.838Z,1.73
2018-09-29T11:34:49.014Z,1.87
2018-09-29T11:37:17.110Z,1.90
2018-09-29T11:39:45.264Z,1.67
2018-09-29T11:42:13.347Z,2.07
2018-09-29T11:44:41.566Z,2.17
2018-09-29T11:47:09.621Z,1.73
2018-09-29T11:49:37.754Z,1.80
2018-09-29T11:52:05.841Z,1.67
2018-09-29T11:54:34.096Z,1.50
2018-09-29T11:57:02.221Z,1.93
2018-09-29T11:59:30.757Z,1.77
2018-09-29T12:01:58.946Z,1.93
2018-09-29T12:04:27.007Z,1.90
2018-09-29T12:06:55.097Z,2.03
2018-09-29T12:09:23.185Z,2.20
2018-09-29T12:11:51.294Z,1.70
2018-09-29T12:14:19.437Z,2.07
2018-09-29T12:16:47.557Z,1.80
2018-09-29T12:19:15.704Z,1.73
2018-09-29T12:21:43.941Z,2.00
2018-09-29T12:24:12.343Z,1.73
2018-09-29T12:26:40.495Z,1.70
2018-09-29T12:29:08.595Z,1.80
2018-09-29T12:31:36.692Z,1.60
2018-09-29T12:34:04.927Z,1.97
2018-09-29T12:36:33.086Z,2.00
2018-09-29T12:39:01.246Z,2.27
2018-09-29T12:41:29.349Z,1.97
2018-09-29T12:43:57.498Z,1.70
2018-09-29T12:46:25.656Z,1.97
2018-09-29T12:48:53.777Z,1.93
2018-09-29T12:51:21.940Z,2.93
2018-09-29T12:53:49.992Z,2.27
2018-09-29T12:56:18.156Z,2.50
2018-09-29T12:58:46.352Z,1.70
2018-09-29T13:01:14.482Z,1.83
2018-09-29T13:03:42.604Z,1.67
2018-09-29T13:06:10.728Z,1.97
2018-09-29T13:08:39.003Z,1.80
2018-09-29T13:11:07.150Z,1.90
2018-09-29T13:13:35.371Z,1.93
2018-09-29T13:16:03.583Z,2.20
2018-09-29T13:18:31.912Z,1.83
2018-09-29T13:21:00.002Z,2.30
2018-09-29T13:23:28.170Z,2.10
2018-09-29T13:25:56.361Z,1.80
2018-09-29T13:28:24.516Z,2.23
2018-09-29T13:30:52.704Z,1.80
2018-09-29T13:33:20.791Z,1.83
2018-09-29T13:35:48.979Z,1.97
2018-09-29T13:38:17.100Z,1.80
2018-09-29T13:40:45.184Z,1.87
2018-09-29T13:43:13.276Z,2.13
2018-09-29T13:45:41.380Z,2.00
2018-09-29T13:48:09.802Z,1.80
2018-09-29T13:50:37.895Z,2.07
2018-09-29T13:53:06.272Z,2.03
2018-09-29T13:55:34.426Z,2.03
2018-09-29T13:58:02.523Z,2.27
2018-09-29T14:00:30.655Z,2.30
2018-09-29T14:02:58.911Z,1.73
2018-09-29T14:05:27.003Z,2.23
2018-09-29T14:07:55.255Z,2.30
2018-09-29T14:10:23.443Z,2.40
2018-09-29T14:12:51.552Z,2.10
2018-09-29T14:15:19.678Z,1.57
2018-09-29T14:17:47.875Z,2.40
2018-09-29T14:20:16.027Z,2.00
2018-09-29T14:22:44.123Z,1.80
2018-09-29T14:25:12.382Z,1.70
2018-09-29T14:27:40.492Z,2.23
2018-09-29T14:30:08.690Z,1.57
2018-09-29T14:32:36.785Z,2.13
2018-09-29T14:35:05.225Z,2.10
2018-09-29T14:37:33.390Z,1.80
2018-09-29T14:40:01.548Z,1.83
2018-09-29T14:42:29.791Z,2.03
2018-09-29T14:44:57.916Z,2.07
2018-09-29T14:47:26.060Z,2.80
2018-09-29T14:49:54.229Z,1.77
2018-09-29T14:52:22.458Z,2.10
2018-09-29T14:54:50.541Z,2.43
2018-09-29T14:57:18.639Z,1.97
2018-09-29T14:59:46.747Z,2.20
2018-09-29T15:02:14.887Z,2.07
2018-09-29T15:04:42.989Z,2.33
2018-09-29T15:07:11.152Z,2.93
2018-09-29T15:09:39.838Z,2.30
2018-09-29T15:12:08.720Z,3.23
2018-09-29T15:14:36.827Z,2.57
2018-09-29T15:17:05.026Z,2.40
2018-09-29T15:19:33.155Z,2.60
2018-09-29T15:22:01.344Z,2.63
2018-09-29T15:24:29.596Z,2.20
2018-09-29T15:26:57.803Z,2.77
2018-09-29T15:29:26.039Z,2.47
2018-09-29T15:31:54.299Z,2.40
2018-09-29T15:34:22.461Z,2.13
2018-09-29T15:36:50.629Z,2.43
2018-09-29T15:39:19.117Z,2.83
2018-09-29T15:41:47.322Z,2.20
2018-09-29T15:44:15.479Z,2.60
2018-09-29T15:46:43.609Z,2.83
2018-09-29T15:49:12.254Z,2.80
2018-09-29T15:51:40.365Z,2.90
2018-09-29T15:54:08.491Z,3.13
2018-09-29T15:56:36.676Z,2.70
2018-09-29T15:59:04.755Z,2.83
2018-09-29T16:01:32.944Z,2.87
2018-09-29T16:04:01.194Z,2.63
2018-09-29T16:06:29.292Z,2.80
2018-09-29T16:08:57.480Z,2.83
2018-09-29T16:11:25.655Z,2.60
2018-09-29T16:13:53.814Z,2.67
2018-09-29T16:16:22.302Z,2.63
2018-09-29T16:18:50.486Z,2.33
2018-09-29T16:21:19.011Z,2.83
2018-09-29T16:23:47.232Z,3.17
2018-09-29T16:26:15.375Z,2.97
2018-09-29T16:28:43.591Z,2.60
2018-09-29T16:31:11.712Z,2.63
2018-09-29T16:33:39.839Z,2.40
2018-09-29T16:36:07.946Z,3.13
2018-09-29T16:38:36.175Z,3.13
2018-09-29T16:41:04.419Z,2.50
2018-09-29T16:43:32.654Z,2.47
2018-09-29T16:46:00.768Z,2.87
2018-09-29T16:48:28.964Z,3.10
2018-09-29T16:50:57.156Z,3.47
2018-09-29T16:53:25.313Z,3.00
2018-09-29T16:55:53.406Z,3.00
2018-09-29T16:58:21.546Z,3.00
2018-09-29T17:00:49.719Z,2.97
2018-09-29T17:03:17.803Z,3.20
2018-09-29T17:05:45.932Z,2.80
2018-09-29T17:08:14.059Z,2.97
2018-09-29T17:10:42.172Z,3.23
2018-09-29T17:13:10.294Z,3.30
2018-09-29T17:15:38.471Z,2.87
2018-09-29T17:18:06.559Z,3.17
2018-09-29T17:20:34.728Z,3.00
2018-09-29T17:23:02.915Z,4.13
2018-09-29T17:25:31.981Z,4.03
2018-09-29T17:28:00.135Z,4.40
2018-09-29T17:30:28.314Z,4.33
2018-09-29T17:32:56.426Z,5.00
2018-09-29T17:35:24.566Z,4.70
2018-09-29T17:37:52.736Z,3.97
2018-09-29T17:40:20.892Z,4.20
2018-09-29T17:42:48.988Z,4.50
2018-09-29T17:45:17.372Z,4.80
2018-09-29T17:47:45.599Z,4.60
2018-09-29T17:50:13.720Z,4.23
2018-09-29T17:52:41.897Z,3.90
2018-09-29T17:55:10.057Z,4.27
2018-09-29T17:57:38.255Z,3.83
2018-09-29T18:00:06.423Z,4.40
2018-09-29T18:02:34.575Z,5.10
2018-09-29T18:05:02.791Z,4.30
2018-09-29T18:07:30.935Z,5.10
2018-09-29T18:09:59.137Z,4.23
2018-09-29T18:12:27.313Z,4.30
2018-09-29T18:14:55.442Z,4.97
2018-09-29T18:17:24.080Z,4.63
2018-09-29T18:19:52.300Z,4.53
2018-09-29T18:22:20.466Z,4.37
2018-09-29T18:24:48.652Z,4.63
2018-09-29T18:27:16.789Z,4.63
2018-09-29T18:29:44.911Z,4.40
2018-09-29T18:32:13.372Z,4.77
2018-09-29T18:34:41.675Z,4.53
2018-09-29T18:37:09.820Z,5.07
2018-09-29T18:39:38.043Z,4.40
2018-09-29T18:42:06.381Z,5.47
2018-09-29T18:44:34.572Z,10.03
2018-09-29T18:47:02.792Z,6.90
2018-09-29T18:49:30.935Z,8.80
2018-09-29T18:51:59.122Z,8.37
2018-09-29T18:54:27.967Z,7.77
2018-09-29T18:56:56.178Z,6.27
2018-09-29T18:59:24.416Z,6.90
2018-09-29T19:01:52.510Z,6.53
2018-09-29T19:04:20.739Z,6.97
2018-09-29T19:06:48.846Z,7.83
2018-09-29T19:09:16.973Z,7.30
2018-09-29T19:11:45.247Z,7.70
2018-09-29T19:14:14.405Z,8.00
2018-09-29T19:16:42.778Z,8.00
2018-09-29T19:19:10.891Z,8.00
2018-09-29T19:21:39.061Z,7.70
2018-09-29T19:24:07.273Z,8.10
2018-09-29T19:26:35.392Z,7.00
2018-09-29T19:29:04.042Z,7.10
2018-09-29T19:31:32.514Z,6.97
2018-09-29T19:34:00.620Z,7.00
2018-09-29T19:36:28.796Z,7.10
2018-09-29T19:38:56.952Z,7.30
2018-09-29T19:41:25.191Z,7.00
2018-09-29T19:43:53.342Z,7.90
2018-09-29T19:46:21.609Z,7.30
2018-09-29T19:48:49.735Z,7.40
2018-09-29T19:51:18.002Z,7.83
2018-09-29T19:53:46.232Z,8.10
2018-09-29T19:56:14.366Z,8.87
2018-09-29T19:58:42.505Z,8.37
2018-09-29T20:01:10.614Z,7.97
2018-09-29T20:03:38.789Z,8.20
2018-09-29T20:06:06.862Z,8.60
2018-09-29T20:08:35.074Z,8.30
2018-09-29T20:11:03.224Z,8.17
2018-09-29T20:13:31.338Z,7.17
2018-09-29T20:15:59.489Z,8.07
2018-09-29T20:18:27.951Z,7.43
2018-09-29T20:20:56.247Z,7.40
2018-09-29T20:23:24.406Z,7.30
2018-09-29T20:25:52.526Z,6.67
2018-09-29T20:28:20.831Z,6.70
2018-09-29T20:30:49.021Z,7.13
2018-09-29T20:33:17.182Z,7.97
2018-09-29T20:35:45.464Z,8.67
2018-09-29T20:38:13.756Z,8.17
2018-09-29T20:40:41.911Z,9.10
2018-09-29T20:43:10.084Z,8.43
2018-09-29T20:45:38.308Z,8.20
2018-09-29T20:48:06.430Z,8.90
2018-09-29T20:50:34.623Z,9.23
2018-09-29T20:53:02.743Z,8.80
2018-09-29T20:55:31.048Z,9.47
2018-09-29T20:57:59.165Z,9.40
2018-09-29T21:00:27.305Z,9.47
2018-09-29T21:02:55.412Z,9.77
2018-09-29T21:05:23.575Z,10.37
2018-09-29T21:07:51.743Z,9.97
2018-09-29T21:10:19.902Z,9.17
2018-09-29T21:12:48.045Z,9.53
2018-09-29T21:15:16.160Z,9.33
2018-09-29T21:17:44.583Z,8.90
2018-09-29T21:20:12.692Z,9.77
2018-09-29T21:22:41.408Z,9.20
2018-09-29T21:25:09.577Z,9.07
2018-09-29T21:27:37.677Z,7.87
2018-09-29T21:30:05.845Z,9.40
2018-09-29T21:32:34.244Z,10.10
2018-09-29T21:35:02.397Z,10.50
2018-09-29T21:37:30.820Z,16.27
2018-09-29T21:39:58.909Z,16.90
2018-09-29T21:42:27.091Z,13.43
2018-09-29T21:44:55.491Z,12.33
2018-09-29T21:47:23.805Z,11.57
2018-09-29T21:49:52.061Z,10.27
2018-09-29T21:52:20.287Z,11.60
2018-09-29T21:54:49.965Z,12.30
2018-09-29T21:57:18.103Z,13.67
2018-09-29T21:59:46.267Z,12.83
2018-09-29T22:02:14.374Z,13.40
2018-09-29T22:04:42.553Z,13.97
2018-09-29T22:07:10.624Z,15.07
2018-09-29T22:09:39.314Z,14.03
2018-09-29T22:12:07.519Z,14.97
2018-09-29T22:14:35.658Z,14.60
2018-09-29T22:17:03.850Z,17.83
2018-09-29T22:19:31.967Z,17.50
2018-09-29T22:22:00.078Z,15.13
2018-09-29T22:24:28.250Z,14.13
2018-09-29T22:26:56.369Z,12.90
2018-09-29T22:29:24.514Z,12.40
2018-09-29T22:31:52.734Z,10.77
2018-09-29T22:34:20.943Z,11.30
2018-09-29T22:36:49.041Z,11.07
2018-09-29T22:39:17.169Z,11.67
2018-09-29T22:41:45.377Z,11.07
2018-09-29T22:44:13.510Z,11.07
2018-09-29T22:46:41.608Z,11.77
2018-09-29T22:49:09.708Z,11.50
2018-09-29T22:51:38.064Z,10.53
2018-09-29T22:54:06.362Z,11.33
2018-09-29T22:56:34.475Z,11.13
2018-09-29T22:59:02.577Z,10.37
2018-09-29T23:01:30.745Z,10.10
2018-09-29T23:03:58.858Z,10.87
2018-09-29T23:06:27.006Z,11.53
2018-09-29T23:08:55.156Z,10.20
2018-09-29T23:11:23.560Z,10.33
2018-09-29T23:13:51.757Z,8.83
2018-09-29T23:16:19.912Z,8.47
2018-09-29T23:18:48.090Z,8.20
2018-09-29T23:21:16.242Z,8.03
2018-09-29T23:23:44.338Z,8.47
2018-09-29T23:26:12.433Z,8.60
2018-09-29T23:28:40.564Z,9.47
2018-09-29T23:31:08.646Z,9.23
2018-09-29T23:33:36.862Z,10.00
2018-09-29T23:36:05.175Z,8.50
2018-09-29T23:38:33.390Z,9.03
2018-09-29T23:41:01.476Z,8.73
2018-09-29T23:43:29.613Z,9.27
2018-09-29T23:45:57.819Z,9.07
2018-09-29T23:48:25.947Z,9.17
2018-09-29T23:50:54.041Z,9.97
2018-09-29T23:53:22.231Z,8.70
2018-09-29T23:55:50.362Z,9.17
2018-09-29T23:58:18.471Z,9.20
